Latest Weather Observations for Century Mine

IDQ60801

Issued at 7:02 am EST Sunday 14 February 2016 (issued every 30 minutes, with the page automatically refreshed every 10 minutes)

About weather observations | Map of weather stations | Latest weather observations for QLD | Other Formats
Station Details ID: 029167 Name: CENTURY MINE Lat: -18.76 Lon: 138.71 Height: 126.8 m
Data from the previous 72 hours. | See also: Recent months at Century Mine
Date/Time
EST
Temp
°C
App
Temp
°C
Dew
Point
Rel
Hum
%
Delta-T
°C
Wind Press
QNH
hPa
Press
MSL
hPa
Rain
since 9 am
mm
Dir
 
Spd
km/h
Gust
km/h
Spd
kts
Gust
kts
14/07:00am 24.6 28.6 20.5 78 2.7 CALM 0 0 0 0 1007.9 1007.0 0.0
14/06:30am 24.7 28.0 20.0 75 3.1 SE 2 7 1 4 1007.6 1006.7 0.0
14/06:00am 25.4 27.9 19.1 68 4.1 SSW 4 7 2 4 1007.1 1006.1 0.0
14/05:30am 26.7 29.7 19.3 64 4.8 SW 2 7 1 4 1006.7 1005.7 0.0
14/05:00am 27.3 30.8 19.6 62 5.0 CALM 0 0 0 0 1006.5 1005.5 0.0
14/04:30am 26.3 30.4 20.8 71 3.6 CALM 0 0 0 0 1006.4 1005.4 0.0
14/04:00am 25.7 28.8 21.1 76 3.1 N 6 7 3 4 1006.2 1005.2 0.0
14/03:30am 24.8 28.6 20.9 79 2.6 ENE 2 7 1 4 1006.2 1005.2 0.0
14/03:00am 24.5 28.0 19.6 74 3.2 CALM 0 0 0 0 1006.2 1005.2 0.0
14/02:30am 25.0 28.3 19.1 70 3.8 CALM 0 0 0 0 1006.4 1005.4 0.0
14/02:00am 25.5 28.4 18.2 64 4.6 CALM 0 0 0 0 1006.8 1005.8 0.0
14/01:30am 25.6 29.0 19.3 68 4.1 CALM 0 0 0 0 1007.2 1006.2 0.0
14/01:00am 26.1 28.7 17.5 59 5.4 CALM 0 4 0 2 1007.4 1006.4 0.0
14/12:30am 26.6 28.5 18.5 61 5.2 N 6 7 3 4 1007.5 1006.5 0.0
14/12:00am 26.8 28.9 17.3 56 6.0 N 2 6 1 3 1007.7 1006.8 0.0
 
Date/Time
EST
Temp
°C
App
Temp
°C
Dew
Point
Rel
Hum
%
Delta-T
°C
Wind Press
QNH
hPa
Press
MSL
hPa
Rain
since 9 am
mm
Dir
 
Spd
km/h
Gust
km/h
Spd
kts
Gust
kts
13/11:30pm 27.2 29.1 18.5 59 5.6 NNW 6 7 3 4 1007.9 1007.0 0.0
13/11:00pm 27.0 29.7 17.8 57 5.8 CALM 0 6 0 3 1007.8 1006.9 0.0
13/10:30pm 27.5 29.7 17.4 54 6.4 NNW 2 7 1 4 1007.7 1006.8 0.0
13/10:00pm 27.6 30.3 17.7 54 6.3 CALM 0 0 0 0 1007.5 1006.5 0.0
13/09:30pm 28.0 30.7 17.8 54 6.5 CALM 0 0 0 0 1007.4 1006.4 0.0
13/09:00pm 28.7 30.8 16.3 47 7.8 CALM 0 6 0 3 1007.3 1006.3 0.0
13/08:30pm 29.5 32.0 17.3 47 7.7 CALM 0 0 0 0 1007.0 1006.0 0.0
13/08:00pm 31.7 32.0 14.4 35 10.6 E 6 9 3 5 1006.6 1005.6 0.0
13/07:30pm 34.0 32.5 10.6 24 13.7 E 9 11 5 6 1006.2 1005.2 0.0
13/07:00pm 35.6 33.9 9.9 21 15.0 E 9 13 5 7 1005.8 1004.8 0.0
13/06:30pm 37.3 33.5 9.0 18 16.4 E 19 26 10 14 1005.5 1004.5 0.0
13/06:00pm 38.4 35.6 9.9 18 16.8 E 15 20 8 11 1005.1 1004.1 0.0
13/05:30pm 39.0 35.6 7.7 15 17.9 ESE 15 28 8 15 1005.0 1004.0 0.0
13/05:00pm 39.4 35.7 8.0 15 18.1 SSE 17 28 9 15 1004.9 1003.9 0.0
13/04:30pm 38.1 35.6 9.6 18 16.7 ESE 13 20 7 11 1005.0 1004.0 0.0
13/04:00pm 38.1 35.4 10.5 19 16.4 E 15 24 8 13 1005.4 1004.4 0.0
13/03:30pm 38.3 36.3 11.4 20 16.2 E 13 20 7 11 1005.6 1004.6 0.0
13/03:00pm 39.3 36.7 10.6 18 17.2 E 15 22 8 12 1005.9 1004.9 0.0
13/02:30pm 38.7 34.8 10.9 19 16.6 E 22 33 12 18 1006.3 1005.3 0.0
13/02:00pm 38.6 36.4 10.9 19 16.6 ENE 13 28 7 15 1006.6 1005.6 0.0
13/01:30pm 38.8 35.7 10.2 18 16.9 E 17 26 9 14 1007.0 1006.0 0.0
13/01:00pm 38.5 35.0 7.3 15 17.7 E 15 24 8 13 1007.2 1006.2 0.0
13/12:30pm 38.3 35.9 11.4 20 16.2 ENE 15 24 8 13 1007.5 1006.5 0.0
13/12:00pm 37.8 34.3 10.2 19 16.3 ENE 19 28 10 15 1008.0 1007.1 0.0
13/11:30am 37.4 35.9 10.7 20 15.8 E 9 17 5 9 1008.3 1007.4 0.0
13/11:00am 36.7 36.7 14.1 26 14.1 E 7 9 4 5 1008.6 1007.7 0.0
13/10:30am 35.8 36.8 14.4 27 13.3 ENE 2 6 1 3 1009.0 1008.1 0.0
13/10:00am 34.9 34.5 12.5 25 13.5 S 6 9 3 5 1009.2 1008.3 0.0
13/09:30am 34.3 33.8 13.7 29 12.6 S 9 13 5 7 1009.1 1008.2 0.0
13/09:00am 32.7 33.3 15.7 36 10.7 S 7 11 4 6 1009.0 1008.1 0.0
13/08:30am 30.7 31.7 16.3 42 9.0 S 6 9 3 5 1009.0 1008.1 0.0
13/08:00am 28.4 30.3 16.7 49 7.3 SSW 2 6 1 3 1008.9 1008.0 0.0
13/07:30am 25.7 26.9 17.4 60 5.2 SSE 7 9 4 5 1008.7 1007.8 0.0
13/07:00am 24.5 25.2 17.0 63 4.7 S 9 11 5 6 1008.4 1007.5 0.0
13/06:30am 23.8 25.2 17.8 69 3.8 S 7 9 4 5 1008.3 1007.4 0.0
13/06:00am 23.8 24.9 17.1 66 4.2 S 7 9 4 5 1008.2 1007.3 0.0
13/05:30am 24.9 25.8 16.6 60 5.1 SSW 7 13 4 7 1007.9 1007.0 0.0
13/05:00am 24.8 25.6 17.3 63 4.7 S 9 11 5 6 1007.8 1006.9 0.0
13/04:30am 24.5 26.4 18.9 71 3.6 S 7 9 4 5 1007.3 1006.3 0.0
13/04:00am 24.3 26.4 20.2 78 2.7 SSW 9 11 5 6 1007.2 1006.2 0.0
13/03:30am 24.0 26.5 19.9 78 2.7 SSE 6 7 3 4 1007.2 1006.2 0.0
13/03:00am 24.4 28.1 19.9 76 2.9 CALM 0 0 0 0 1007.1 1006.1 0.0
13/02:30am 24.1 27.7 19.8 77 2.8 CALM 0 0 0 0 1007.2 1006.2 0.0
13/02:00am 24.3 27.3 18.5 70 3.7 CALM 0 0 0 0 1007.3 1006.3 0.0
13/01:30am 24.6 26.8 19.2 72 3.5 WSW 6 6 3 3 1007.6 1006.7 0.0
13/01:00am 24.7 27.8 18.6 69 3.9 CALM 0 0 0 0 1007.7 1006.8 0.0
13/12:30am 24.9 28.2 19.1 70 3.7 CALM 0 0 0 0 1007.7 1006.8 0.0
13/12:00am 25.3 28.2 18.2 64 4.5 CALM 0 0 0 0 1007.9 1007.0 0.0
 
Date/Time
EST
Temp
°C
App
Temp
°C
Dew
Point
Rel
Hum
%
Delta-T
°C
Wind Press
QNH
hPa
Press
MSL
hPa
Rain
since 9 am
mm
Dir
 
Spd
km/h
Gust
km/h
Spd
kts
Gust
kts
12/11:30pm 25.5 28.7 18.9 67 4.2 CALM 0 0 0 0 1008.0 1007.1 0.0
12/11:00pm 26.3 29.2 18.2 61 5.2 CALM 0 0 0 0 1008.0 1007.1 0.0
12/10:30pm 26.7 29.2 17.2 56 6.0 CALM 0 0 0 0 1007.8 1006.9 0.0
12/10:00pm 27.3 30.1 18.0 56 5.9 CALM 0 0 0 0 1007.7 1006.8 0.0
12/09:30pm 27.5 30.4 18.2 57 5.9 CALM 0 0 0 0 1007.6 1006.7 0.0
12/09:00pm 28.1 31.0 18.2 55 6.4 CALM 0 0 0 0 1007.6 1006.7 0.0
12/08:30pm 29.5 31.4 16.7 46 8.1 ENE 2 7 1 4 1007.4 1006.4 0.0
12/08:00pm 31.0 31.4 13.7 34 10.5 E 4 7 2 4 1007.1 1006.1 0.0
12/07:30pm 33.5 32.3 10.2 24 13.5 E 7 9 4 5 1006.8 1005.8 0.0
12/07:00pm 35.4 32.7 9.0 20 15.2 E 13 17 7 9 1006.4 1005.4 0.0
12/06:30pm 36.6 33.2 9.2 19 15.8 E 17 26 9 14 1006.1 1005.1 0.0
12/06:00pm 37.4 34.4 9.1 18 16.4 ESE 15 28 8 15 1005.9 1004.9 0.0
12/05:30pm 38.1 35.0 8.8 17 16.9 E 15 26 8 14 1005.7 1004.7 0.0
12/05:00pm 38.5 35.0 7.3 15 17.7 SE 15 26 8 14 1005.8 1004.8 0.0
12/04:30pm 38.5 36.5 10.0 18 16.8 ESE 11 19 6 10 1005.8 1004.8 0.0
12/04:00pm 38.5 36.1 10.0 18 16.9 S 13 22 7 12 1005.7 1004.7 0.0
12/03:30pm 37.9 35.3 9.5 18 16.6 ESE 13 26 7 14 1006.0 1005.0 0.0
12/03:00pm 37.7 36.9 13.0 23 15.2 SE 9 17 5 9 1006.2 1005.2 0.0
12/02:30pm 37.8 36.4 9.4 18 16.6 SE 7 13 4 7 1006.7 1005.7 0.0
12/02:00pm 37.3 34.5 11.3 21 15.6 E 17 30 9 16 1007.2 1006.2 0.0
12/01:30pm 37.8 37.2 11.7 21 15.7 ESE 6 19 3 10 1007.7 1006.8 0.0
12/01:00pm 36.6 35.3 9.2 19 15.9 NE 6 17 3 9 1008.1 1007.2 0.0
12/12:30pm 36.4 34.9 11.9 23 14.7 ESE 11 20 6 11 1008.7 1007.8 0.0
12/12:00pm 36.2 35.3 15.9 30 12.9 E 15 24 8 13 1009.1 1008.2 0.0
12/11:30am 36.1 35.9 13.6 26 13.8 ESE 7 17 4 9 1009.4 1008.5 0.0
12/11:00am 35.2 34.9 15.5 30 12.4 SE 11 17 6 9 1009.7 1008.8 0.0
12/10:30am 34.0 34.6 16.8 35 11.0 SSE 9 15 5 8 1010.0 1009.1 0.0
12/10:00am 33.1 35.1 19.2 43 9.2 SSE 7 13 4 7 1010.3 1009.4 0.0
12/09:30am 32.1 34.0 19.7 48 8.2 S 9 13 5 7 1010.4 1009.5 0.0
12/09:00am 30.7 33.7 20.9 56 6.6 SSW 6 9 3 5 1010.5 1009.6 0.0
12/08:30am 29.3 32.8 21.8 64 5.1 SSE 6 11 3 6 1010.4 1009.5 0.0
12/08:00am 27.5 31.5 22.0 72 3.7 S 4 9 2 5 1010.2 1009.3 0.0
12/07:30am 25.3 30.8 23.4 89 1.3 CALM 0 6 0 3 1009.9 1009.0 0.0
12/07:00am 23.8 27.4 22.1 90 1.1 S 6 7 3 4 1009.4 1008.5 0.0
12/06:30am 23.4 26.6 21.7 90 1.1 S 7 9 4 5 1009.0 1008.1 0.0
12/06:00am 23.7 27.6 21.8 89 1.3 SSE 4 7 2 4 1008.7 1007.8 0.0
12/05:30am 23.8 27.7 21.9 89 1.3 S 4 9 2 5 1008.2 1007.3 0.0
12/05:00am 24.0 27.6 22.1 89 1.3 SSW 6 9 3 5 1007.9 1007.0 0.0
12/04:30am 23.9 27.4 22.2 90 1.1 SSW 7 9 4 5 1007.8 1006.9 0.0
12/04:00am 23.9 28.6 22.0 89 1.3 CALM 0 0 0 0 1007.7 1006.8 0.0
12/03:30am 24.2 29.0 22.1 88 1.4 CALM 0 0 0 0 1007.8 1006.9 0.0
12/03:00am 24.5 29.3 22.2 87 1.5 CALM 0 0 0 0 1007.8 1006.9 0.0
12/02:30am 24.9 29.8 22.4 86 1.7 CALM 0 0 0 0 1007.8 1006.9 0.0
12/02:00am 24.5 29.0 21.6 84 1.9 CALM 0 0 0 0 1008.0 1007.1 0.0
12/01:30am 24.7 29.1 21.4 82 2.2 CALM 0 2 0 1 1008.2 1007.3 0.0
12/01:00am 24.8 28.5 21.5 82 2.2 WNW 4 7 2 4 1008.3 1007.4 0.0
12/12:30am 24.7 27.8 21.4 82 2.2 WNW 7 9 4 5 1008.4 1007.5 0.0
12/12:00am 25.2 29.2 20.5 75 3.1 CALM 0 0 0 0 1008.7 1007.8 0.0
 
Date/Time
EST
Temp
°C
App
Temp
°C
Dew
Point
Rel
Hum
%
Delta-T
°C
Wind Press
QNH
hPa
Press
MSL
hPa
Rain
since 9 am
mm
Dir
 
Spd
km/h
Gust
km/h
Spd
kts
Gust
kts
11/11:30pm 25.7 30.0 21.1 76 3.0 CALM 0 0 0 0 1008.8 1007.9 0.0
11/11:00pm 26.0 30.4 21.4 76 3.1 CALM 0 0 0 0 1008.9 1008.0 0.0
11/10:30pm 26.6 31.2 21.8 75 3.2 CALM 0 0 0 0 1008.8 1007.9 0.0
11/10:00pm 27.0 30.3 21.5 72 3.7 SE 6 7 3 4 1008.5 1007.6 0.0
11/09:30pm 27.6 30.6 20.9 67 4.5 ESE 6 7 3 4 1008.2 1007.3 0.0
11/09:00pm 28.4 32.3 20.4 62 5.3 CALM 0 7 0 4 1007.8 1006.9 0.0
11/08:30pm 29.6 32.7 18.7 52 7.1 CALM 0 0 0 0 1007.5 1006.5 0.0
11/08:00pm 31.5 32.8 17.0 41 9.2 E 6 9 3 5 1007.3 1006.3 0.0
11/07:30pm 32.6 33.2 16.8 38 10.1 E 9 15 5 8 1006.9 1005.9 0.0
11/07:00pm 33.4 34.1 17.1 37 10.5 E 9 13 5 7 1006.4 1005.4 0.0
11/06:30pm 34.1 34.5 17.3 36 10.8 E 11 15 6 8 1006.1 1005.1 0.0
11/06:00pm 34.1 34.9 17.3 36 10.8 E 9 17 5 9 1005.8 1004.8 0.0
11/05:30pm 34.6 36.0 18.6 38 10.5 ENE 9 15 5 8 1005.5 1004.5 0.0
11/05:00pm 34.7 36.7 19.9 42 9.9 ENE 9 17 5 9 1005.3 1004.3 0.0
11/04:30pm 33.6 34.9 18.5 40 9.9 ESE 9 13 5 7 1005.3 1004.3 0.0
11/04:00pm 33.3 34.1 19.0 42 9.4 E 13 17 7 9 1005.6 1004.6 0.0
11/03:30pm 32.2 32.5 18.0 42 9.2 SE 13 20 7 11 1005.8 1004.8 0.0
11/03:00pm 33.7 33.7 18.2 39 10.1 ESE 15 20 8 11 1005.9 1004.9 0.0
11/02:30pm 34.9 35.1 18.5 38 10.8 E 15 22 8 12 1006.2 1005.2 0.0
11/02:00pm 34.5 35.2 18.9 39 10.3 ENE 13 20 7 11 1006.6 1005.6 0.0
11/01:30pm 34.2 34.8 18.7 40 10.2 E 13 20 7 11 1007.2 1006.2 0.0
11/01:00pm 35.1 37.4 21.4 45 9.4 E 11 19 6 10 1007.7 1006.8 0.0
11/12:30pm 34.3 35.5 20.7 45 9.2 E 15 20 8 11 1008.1 1007.2 0.0
11/12:00pm 34.0 35.6 21.4 47 8.6 E 15 24 8 13 1008.5 1007.6 0.0
11/11:30am 33.4 36.0 21.9 51 7.9 E 11 22 6 12 1008.8 1007.9 0.0
11/11:00am 32.8 34.9 21.0 50 8.0 E 11 19 6 10 1009.1 1008.2 0.0
11/10:30am 32.3 35.2 21.8 54 7.1 ENE 9 17 5 9 1009.2 1008.3 0.0
11/10:00am 31.8 35.3 22.8 59 6.2 ESE 9 15 5 8 1009.5 1008.6 0.0
11/09:30am 30.3 33.6 21.9 60 5.7 SE 7 13 4 7 1009.4 1008.5 0.0
11/09:00am 29.2 31.7 21.7 64 5.1 ESE 11 15 6 8 1009.3 1008.4 0.4
11/08:30am 28.0 31.1 22.2 70 3.9 SE 9 15 5 8 1009.1 1008.2 0.4
11/08:00am 27.6 30.8 21.6 70 4.0 SSE 7 11 4 6 1009.0 1008.1 0.4
11/07:30am 25.8 29.4 22.1 80 2.5 SSE 6 11 3 6 1008.6 1007.7 0.4

Other Formats:

Comma delimited format used in spreadsheet applications
http://www.bom.gov.au/fwo/IDQ60801/IDQ60801.94261.axf

JavaScript Object Notation format (JSON) in row-major order
http://www.bom.gov.au/fwo/IDQ60801/IDQ60801.94261.json